Time;durP1;ratioP1;P1;durP2;ratioP2;P2;SDS_P1;SDS_P2;PMS_P1;PMS_P2;Temp;Humidity;BMP_temperature;BMP_pressure;BME280_temperature;BME280_humidity;BME280_pressure;Samples;Min_cycle;Max_cycle;Signal;HPM_P1;HPM_P2
2023/10/01 00:00:07;;;;;;;0.80;0.80;;;;;;;;;;5113512;28;20885;-67
2023/10/01 00:02:34;;;;;;;0.80;0.80;;;;;;;;;;5094851;28;20438;-67
2023/10/01 00:05:03;;;;;;;0.73;0.73;;;;;;;;;;5112949;28;20528;-66
2023/10/01 00:07:30;;;;;;;0.80;0.80;;;;;;;;;;5115012;28;20440;-67
2023/10/01 00:10:01;;;;;;;0.80;0.80;;;;;;;;;;5116795;28;20438;-67
2023/10/01 00:12:29;;;;;;;0.80;0.80;;;;;;;;;;5117316;28;20437;-67
2023/10/01 00:14:58;;;;;;;0.70;0.70;;;;;;;;;;5116804;28;20441;-67
2023/10/01 00:17:25;;;;;;;0.70;0.70;;;;;;;;;;5116864;28;20442;-66
2023/10/01 00:19:52;;;;;;;0.90;0.90;;;;;;;;;;5116710;28;20537;-67
2023/10/01 00:22:19;;;;;;;1.73;1.30;;;;;;;;;;5116403;28;20447;-67
2023/10/01 00:24:46;;;;;;;0.80;0.80;;;;;;;;;;5116429;28;20491;-67
2023/10/01 00:27:14;;;;;;;0.73;0.73;;;;;;;;;;5116550;28;20882;-68
2023/10/01 00:29:41;;;;;;;0.70;0.70;;;;;;;;;;5116196;28;20476;-67
2023/10/01 00:32:10;;;;;;;0.80;0.80;;;;;;;;;;5116069;28;20434;-67
2023/10/01 00:34:37;;;;;;;0.70;0.70;;;;;;;;;;5116488;28;20452;-67
2023/10/01 00:37:04;;;;;;;0.80;0.80;;;;;;;;;;5116077;28;20490;-65
2023/10/01 00:39:34;;;;;;;0.87;0.87;;;;;;;;;;5116323;28;20460;-67
2023/10/01 00:42:02;;;;;;;1.30;1.20;;;;;;;;;;5116139;28;20444;-66
2023/10/01 00:44:30;;;;;;;1.37;1.27;;;;;;;;;;5115401;28;20477;-66
2023/10/01 00:46:57;;;;;;;0.80;0.80;;;;;;;;;;5115495;28;20918;-66
2023/10/01 00:49:26;;;;;;;0.80;0.80;;;;;;;;;;5115450;28;20556;-66
2023/10/01 00:51:53;;;;;;;0.80;0.80;;;;;;;;;;5116151;28;20437;-65
2023/10/01 00:54:21;;;;;;;0.83;0.83;;;;;;;;;;5115972;28;20864;-66
2023/10/01 00:56:50;;;;;;;0.90;0.90;;;;;;;;;;5115703;28;20472;-66
2023/10/01 00:59:18;;;;;;;0.80;0.80;;;;;;;;;;5115880;28;20851;-66
2023/10/01 01:01:46;;;;;;;0.80;0.80;;;;;;;;;;5115321;28;20452;-66
2023/10/01 01:04:19;;;;;;;0.70;0.70;;;;;;;;;;5114986;28;20514;-66
2023/10/01 01:06:48;;;;;;;0.70;0.70;;;;;;;;;;5115658;28;20501;-65
2023/10/01 01:09:16;;;;;;;0.70;0.70;;;;;;;;;;5115387;28;20440;-66
2023/10/01 01:11:47;;;;;;;0.77;0.77;;;;;;;;;;5115406;28;20434;-65
2023/10/01 01:14:15;;;;;;;0.80;0.80;;;;;;;;;;5115493;28;20515;-66
2023/10/01 01:16:45;;;;;;;1.80;1.33;;;;;;;;;;5115018;28;20445;-66
2023/10/01 01:19:12;;;;;;;0.80;0.80;;;;;;;;;;5114223;28;20529;-66
2023/10/01 01:21:42;;;;;;;0.70;0.70;;;;;;;;;;5114973;28;20899;-66
2023/10/01 01:24:11;;;;;;;1.00;1.00;;;;;;;;;;5114496;28;20943;-66
2023/10/01 01:26:41;;;;;;;0.73;0.73;;;;;;;;;;5115600;28;20509;-66
2023/10/01 01:29:18;;;;;;;0.70;0.70;;;;;;;;;;5115201;28;20950;-66
2023/10/01 01:31:46;;;;;;;0.80;0.80;;;;;;;;;;5115238;28;20788;-66
2023/10/01 01:34:14;;;;;;;0.77;0.77;;;;;;;;;;5114899;28;20445;-66
2023/10/01 01:36:42;;;;;;;0.90;0.90;;;;;;;;;;5114964;28;20453;-66
2023/10/01 01:39:26;;;;;;;0.80;0.80;;;;;;;;;;5114801;28;20915;-66
2023/10/01 01:41:54;;;;;;;0.80;0.80;;;;;;;;;;5114645;28;20425;-66
2023/10/01 01:44:23;;;;;;;0.70;0.70;;;;;;;;;;5114375;28;20569;-66
2023/10/01 01:46:59;;;;;;;0.70;0.70;;;;;;;;;;5114713;28;20447;-67
2023/10/01 01:49:27;;;;;;;0.80;0.80;;;;;;;;;;5114938;28;20476;-67
2023/10/01 01:51:59;;;;;;;0.80;0.80;;;;;;;;;;5114838;28;20509;-67
2023/10/01 01:54:29;;;;;;;0.80;0.80;;;;;;;;;;5114330;28;20961;-67
2023/10/01 01:56:56;;;;;;;0.70;0.70;;;;;;;;;;5115360;28;20425;-67
2023/10/01 01:59:27;;;;;;;0.80;0.80;;;;;;;;;;5114446;28;20430;-67
2023/10/01 02:01:55;;;;;;;0.80;0.80;;;;;;;;;;5114464;28;20779;-67
2023/10/01 02:04:23;;;;;;;0.73;0.73;;;;;;;;;;5114866;28;20482;-67
2023/10/01 02:06:51;;;;;;;0.70;0.70;;;;;;;;;;5114355;28;20552;-67
2023/10/01 02:09:20;;;;;;;0.70;0.70;;;;;;;;;;5114451;28;20528;-67
2023/10/01 02:11:50;;;;;;;0.70;0.70;;;;;;;;;;5114321;28;20807;-67
2023/10/01 02:14:31;;;;;;;0.70;0.70;;;;;;;;;;5113899;28;20477;-67
2023/10/01 02:17:13;;;;;;;0.70;0.70;;;;;;;;;;5114838;28;20429;-66
2023/10/01 02:19:40;;;;;;;0.80;0.80;;;;;;;;;;5114644;28;20515;-67
2023/10/01 02:22:08;;;;;;;0.70;0.70;;;;;;;;;;5130775;27;20462;-67
2023/10/01 02:24:44;;;;;;;0.80;0.80;;;;;;;;;;5134713;27;20842;-67
2023/10/01 02:27:15;;;;;;;0.80;0.80;;;;;;;;;;5135497;27;20435;-66
2023/10/01 02:32:30;;;;;;;0.70;0.70;;;;;;;;;;5133293;27;20470;-66
2023/10/01 02:34:58;;;;;;;0.70;0.70;;;;;;;;;;5134568;27;20533;-67
2023/10/01 02:37:29;;;;;;;0.70;0.70;;;;;;;;;;5135007;27;20438;-67
2023/10/01 02:39:56;;;;;;;0.80;0.80;;;;;;;;;;5134817;27;20490;-67
2023/10/01 02:42:27;;;;;;;0.70;0.70;;;;;;;;;;5134898;27;20851;-67
2023/10/01 02:44:54;;;;;;;0.70;0.70;;;;;;;;;;5133994;27;20469;-67
2023/10/01 02:47:23;;;;;;;0.70;0.70;;;;;;;;;;5134419;27;20440;-67
2023/10/01 02:49:51;;;;;;;0.80;0.80;;;;;;;;;;5133923;27;20494;-67
2023/10/01 02:52:19;;;;;;;0.70;0.70;;;;;;;;;;5134285;27;20446;-67
2023/10/01 02:54:47;;;;;;;0.73;0.73;;;;;;;;;;5133737;27;20536;-66
2023/10/01 02:57:23;;;;;;;0.70;0.70;;;;;;;;;;5134022;27;20790;-66
2023/10/01 03:00:20;;;;;;;0.80;0.80;;;;;;;;;;5134296;27;20512;-67
2023/10/01 03:02:51;;;;;;;0.80;0.80;;;;;;;;;;5134141;28;20974;-67
2023/10/01 03:05:23;;;;;;;2.97;2.83;;;;;;;;;;5134359;28;20474;-66
2023/10/01 03:07:51;;;;;;;0.80;0.80;;;;;;;;;;5134390;28;20828;-66
2023/10/01 03:10:25;;;;;;;0.73;0.73;;;;;;;;;;5134416;28;20436;-67
2023/10/01 03:12:53;;;;;;;0.80;0.80;;;;;;;;;;5133808;28;20429;-67
2023/10/01 03:15:25;;;;;;;0.70;0.70;;;;;;;;;;5133970;28;20438;-67
2023/10/01 03:17:58;;;;;;;0.70;0.70;;;;;;;;;;5134462;28;20879;-67
2023/10/01 03:23:24;;;;;;;0.70;0.70;;;;;;;;;;5134326;28;20486;-67
2023/10/01 03:25:58;;;;;;;0.70;0.70;;;;;;;;;;5134035;28;20846;-67
2023/10/01 03:28:26;;;;;;;0.70;0.70;;;;;;;;;;5133727;28;20958;-67
2023/10/01 03:31:06;;;;;;;0.70;0.70;;;;;;;;;;5134118;28;20431;-66
2023/10/01 03:33:34;;;;;;;0.70;0.70;;;;;;;;;;5133842;28;20484;-66
2023/10/01 03:36:02;;;;;;;0.80;0.80;;;;;;;;;;5133665;28;20584;-67
2023/10/01 03:38:32;;;;;;;0.70;0.70;;;;;;;;;;5133630;28;20848;-68
2023/10/01 03:41:00;;;;;;;0.80;0.80;;;;;;;;;;5133459;27;20498;-66
2023/10/01 03:43:34;;;;;;;0.80;0.80;;;;;;;;;;5137765;27;20548;-67
2023/10/01 03:46:19;;;;;;;0.70;0.70;;;;;;;;;;5137373;27;20421;-67
2023/10/01 03:48:58;;;;;;;0.70;0.70;;;;;;;;;;5137408;27;20428;-66
2023/10/01 03:54:14;;;;;;;0.80;0.80;;;;;;;;;;5135130;27;20436;-66
2023/10/01 03:56:45;;;;;;;0.80;0.80;;;;;;;;;;5136417;27;20450;-66
2023/10/01 03:59:16;;;;;;;0.90;0.90;;;;;;;;;;5136940;27;20413;-67
2023/10/01 04:04:56;;;;;;;0.80;0.80;;;;;;;;;;5090149;28;20505;-68
2023/10/01 04:07:26;;;;;;;0.70;0.70;;;;;;;;;;5089492;28;20522;-67
2023/10/01 04:09:54;;;;;;;0.70;0.70;;;;;;;;;;5089976;28;20795;-66
2023/10/01 04:12:28;;;;;;;0.90;0.90;;;;;;;;;;5089506;28;20526;-65
2023/10/01 04:15:01;;;;;;;0.80;0.80;;;;;;;;;;5089755;28;20460;-66
2023/10/01 04:17:29;;;;;;;0.70;0.70;;;;;;;;;;5089609;28;20457;-65
2023/10/01 04:20:00;;;;;;;0.80;0.80;;;;;;;;;;5089686;28;20530;-66
2023/10/01 04:22:29;;;;;;;0.77;0.77;;;;;;;;;;5089340;28;20453;-67
2023/10/01 04:25:09;;;;;;;0.80;0.80;;;;;;;;;;5089582;28;20431;-67
2023/10/01 04:27:36;;;;;;;0.70;0.70;;;;;;;;;;5089533;28;20485;-66
2023/10/01 04:30:08;;;;;;;0.80;0.80;;;;;;;;;;5089679;28;20942;-66
2023/10/01 04:32:36;;;;;;;0.80;0.80;;;;;;;;;;5090192;28;20618;-67
2023/10/01 04:35:14;;;;;;;0.70;0.70;;;;;;;;;;5089806;28;20432;-66
2023/10/01 04:37:41;;;;;;;0.70;0.70;;;;;;;;;;5089900;28;20603;-67
2023/10/01 04:40:31;;;;;;;0.80;0.80;;;;;;;;;;5089875;28;20531;-67
2023/10/01 04:43:01;;;;;;;1.00;1.00;;;;;;;;;;5089428;28;20565;-67
2023/10/01 04:45:36;;;;;;;0.70;0.70;;;;;;;;;;5089303;28;20432;-66
2023/10/01 04:48:13;;;;;;;0.70;0.70;;;;;;;;;;5089461;28;20438;-66
2023/10/01 04:50:42;;;;;;;0.70;0.70;;;;;;;;;;5089284;28;20530;-66
2023/10/01 04:53:13;;;;;;;0.80;0.80;;;;;;;;;;5089189;28;20442;-66
2023/10/01 04:55:42;;;;;;;0.70;0.70;;;;;;;;;;5088995;28;20530;-66
2023/10/01 04:58:12;;;;;;;0.80;0.80;;;;;;;;;;5089507;28;20437;-66
2023/10/01 05:00:39;;;;;;;0.80;0.80;;;;;;;;;;5089836;28;20525;-66
2023/10/01 05:03:08;;;;;;;0.80;0.80;;;;;;;;;;5088724;28;20577;-66
2023/10/01 05:05:37;;;;;;;0.80;0.80;;;;;;;;;;5089143;28;20455;-66
2023/10/01 05:08:06;;;;;;;0.80;0.80;;;;;;;;;;5089223;28;20765;-66
2023/10/01 05:10:51;;;;;;;0.80;0.80;;;;;;;;;;5089294;28;20439;-66
2023/10/01 05:13:22;;;;;;;0.70;0.70;;;;;;;;;;5088798;28;20442;-66
2023/10/01 05:15:52;;;;;;;1.37;1.27;;;;;;;;;;5076655;28;20421;-65
2023/10/01 05:18:20;;;;;;;0.90;0.90;;;;;;;;;;5075394;28;20439;-66
2023/10/01 05:20:48;;;;;;;0.80;0.80;;;;;;;;;;5075548;28;20470;-66
2023/10/01 05:23:17;;;;;;;0.80;0.80;;;;;;;;;;5074910;28;20467;-65
2023/10/01 05:25:45;;;;;;;0.80;0.80;;;;;;;;;;5075271;28;20527;-66
2023/10/01 05:28:31;;;;;;;0.80;0.80;;;;;;;;;;5075528;28;20796;-66
2023/10/01 05:30:58;;;;;;;0.70;0.70;;;;;;;;;;5075553;28;20415;-66
2023/10/01 05:33:27;;;;;;;0.70;0.70;;;;;;;;;;5075008;28;20771;-66
2023/10/01 05:35:57;;;;;;;0.80;0.80;;;;;;;;;;5074971;28;20446;-66
2023/10/01 05:38:27;;;;;;;0.80;0.80;;;;;;;;;;5075504;28;20423;-72
2023/10/01 05:40:56;;;;;;;0.80;0.80;;;;;;;;;;5075111;28;20431;-65
2023/10/01 05:43:27;;;;;;;0.77;0.77;;;;;;;;;;5074751;28;20805;-66
2023/10/01 05:46:01;;;;;;;0.70;0.70;;;;;;;;;;5074997;28;20431;-66
2023/10/01 05:48:28;;;;;;;0.70;0.70;;;;;;;;;;5074823;28;20423;-65
2023/10/01 05:50:57;;;;;;;0.80;0.80;;;;;;;;;;5074550;28;20440;-66
2023/10/01 05:53:26;;;;;;;0.70;0.70;;;;;;;;;;5074781;28;20459;-65
2023/10/01 05:55:54;;;;;;;0.70;0.70;;;;;;;;;;5074878;28;20446;-65
2023/10/01 05:58:22;;;;;;;0.70;0.70;;;;;;;;;;5074485;28;20453;-65
2023/10/01 06:00:56;;;;;;;0.80;0.80;;;;;;;;;;5074531;28;20522;-66
2023/10/01 06:03:24;;;;;;;0.80;0.80;;;;;;;;;;5073969;28;20528;-66
2023/10/01 06:05:57;;;;;;;0.70;0.70;;;;;;;;;;5075070;28;20453;-66
2023/10/01 06:08:26;;;;;;;0.80;0.80;;;;;;;;;;5074649;28;20437;-65
2023/10/01 06:11:04;;;;;;;0.80;0.80;;;;;;;;;;5074660;28;20478;-65
2023/10/01 06:13:34;;;;;;;0.80;0.80;;;;;;;;;;5074103;28;20434;-65
2023/10/01 06:16:11;;;;;;;0.80;0.80;;;;;;;;;;5073894;28;20455;-65
2023/10/01 06:18:41;;;;;;;0.70;0.70;;;;;;;;;;5074109;28;20538;-65
2023/10/01 06:21:09;;;;;;;0.70;0.70;;;;;;;;;;5074335;28;20494;-65
2023/10/01 06:23:49;;;;;;;0.70;0.70;;;;;;;;;;5074374;28;20471;-66
2023/10/01 06:26:18;;;;;;;0.70;0.70;;;;;;;;;;5073144;28;20431;-66
2023/10/01 06:28:45;;;;;;;0.80;0.80;;;;;;;;;;5073856;28;20441;-69
2023/10/01 06:31:12;;;;;;;0.80;0.80;;;;;;;;;;5074251;28;20443;-68
2023/10/01 06:33:39;;;;;;;0.80;0.80;;;;;;;;;;5074551;28;20761;-67
2023/10/01 06:36:21;;;;;;;0.70;0.70;;;;;;;;;;5073929;28;20443;-67
2023/10/01 06:38:53;;;;;;;0.80;0.80;;;;;;;;;;5074041;28;20427;-67
2023/10/01 06:41:25;;;;;;;0.80;0.80;;;;;;;;;;5074042;28;20428;-67
2023/10/01 06:43:55;;;;;;;0.80;0.80;;;;;;;;;;5073543;28;20959;-67
2023/10/01 06:46:23;;;;;;;0.80;0.80;;;;;;;;;;5073577;28;20795;-67
2023/10/01 06:48:51;;;;;;;0.80;0.80;;;;;;;;;;5073491;28;20444;-67
2023/10/01 06:51:21;;;;;;;0.80;0.80;;;;;;;;;;5073361;28;20451;-67
2023/10/01 06:53:54;;;;;;;0.70;0.70;;;;;;;;;;5073763;28;20443;-67
2023/10/01 06:56:21;;;;;;;0.70;0.70;;;;;;;;;;5073679;28;20459;-67
2023/10/01 07:01:49;;;;;;;0.77;0.77;;;;;;;;;;5011766;28;20887;-65
2023/10/01 07:04:17;;;;;;;0.70;0.70;;;;;;;;;;5060403;28;20584;-67
2023/10/01 07:06:45;;;;;;;0.80;0.80;;;;;;;;;;5073759;28;20444;-68
2023/10/01 07:09:27;;;;;;;0.80;0.80;;;;;;;;;;5073137;28;20454;-67
2023/10/01 07:11:56;;;;;;;0.80;0.80;;;;;;;;;;5073463;28;20726;-67
2023/10/01 07:14:31;;;;;;;0.70;0.70;;;;;;;;;;5073327;28;20436;-67
2023/10/01 07:17:00;;;;;;;0.80;0.80;;;;;;;;;;5072808;28;20438;-67
2023/10/01 07:19:27;;;;;;;0.70;0.70;;;;;;;;;;5073006;28;20436;-67
2023/10/01 07:21:58;;;;;;;0.80;0.80;;;;;;;;;;5073006;28;20443;-67
2023/10/01 07:24:28;;;;;;;0.90;0.90;;;;;;;;;;5073101;28;20478;-67
2023/10/01 07:27:03;;;;;;;0.70;0.70;;;;;;;;;;5073382;28;20515;-67
2023/10/01 07:29:33;;;;;;;0.70;0.70;;;;;;;;;;5073545;28;20430;-67
2023/10/01 07:32:01;;;;;;;0.70;0.70;;;;;;;;;;5073196;28;20447;-67
2023/10/01 07:34:31;;;;;;;0.80;0.80;;;;;;;;;;5072703;28;21004;-67
2023/10/01 07:36:59;;;;;;;0.80;0.80;;;;;;;;;;5072617;28;20903;-67
2023/10/01 07:39:32;;;;;;;0.70;0.70;;;;;;;;;;5072982;28;20826;-67
2023/10/01 07:42:02;;;;;;;0.70;0.70;;;;;;;;;;5073470;28;20504;-66
2023/10/01 07:44:29;;;;;;;1.30;1.20;;;;;;;;;;5072707;28;20478;-66
2023/10/01 07:46:56;;;;;;;0.70;0.70;;;;;;;;;;5072722;28;20492;-67
2023/10/01 07:49:25;;;;;;;0.70;0.70;;;;;;;;;;5072276;28;20500;-67
2023/10/01 07:51:52;;;;;;;0.70;0.70;;;;;;;;;;5073319;28;20459;-67
2023/10/01 07:54:23;;;;;;;0.70;0.70;;;;;;;;;;5073033;28;20478;-67
2023/10/01 07:56:56;;;;;;;0.80;0.80;;;;;;;;;;5072652;28;20940;-67
2023/10/01 07:59:34;;;;;;;0.80;0.80;;;;;;;;;;5072690;28;20463;-67
2023/10/01 08:02:19;;;;;;;0.70;0.70;;;;;;;;;;5073116;28;20425;-67
2023/10/01 08:04:59;;;;;;;0.70;0.70;;;;;;;;;;5072554;28;20468;-67
2023/10/01 08:07:39;;;;;;;0.70;0.70;;;;;;;;;;5072445;28;20431;-67
2023/10/01 08:10:16;;;;;;;0.80;0.80;;;;;;;;;;5073011;28;20427;-66
2023/10/01 08:13:05;;;;;;;0.70;0.70;;;;;;;;;;5072460;28;20481;-66
2023/10/01 08:15:38;;;;;;;0.70;0.70;;;;;;;;;;5072426;28;20443;-67
2023/10/01 08:18:26;;;;;;;0.70;0.70;;;;;;;;;;5072865;28;20783;-67
2023/10/01 08:21:00;;;;;;;0.70;0.70;;;;;;;;;;5072652;28;20434;-66
2023/10/01 08:23:27;;;;;;;0.70;0.70;;;;;;;;;;5072460;28;20424;-67
2023/10/01 08:25:55;;;;;;;0.80;0.80;;;;;;;;;;5072463;28;20464;-67
2023/10/01 08:28:26;;;;;;;0.80;0.80;;;;;;;;;;5072626;28;20434;-68
2023/10/01 08:31:42;;;;;;;0.70;0.70;;;;;;;;;;5072475;28;20428;-67
2023/10/01 08:33:53;;;;;;;0.70;0.70;;;;;;;;;;5072657;28;20898;-67
2023/10/01 08:36:24;;;;;;;0.70;0.70;;;;;;;;;;5071849;28;20444;-67
2023/10/01 08:41:35;;;;;;;0.70;0.70;;;;;;;;;;5071919;28;20435;-66
2023/10/01 08:44:10;;;;;;;0.70;0.70;;;;;;;;;;5072344;28;20513;-67
2023/10/01 08:46:40;;;;;;;0.70;0.70;;;;;;;;;;5072436;28;20507;-67
2023/10/01 08:49:22;;;;;;;0.70;0.70;;;;;;;;;;5072310;28;20436;-67
2023/10/01 08:51:52;;;;;;;0.70;0.70;;;;;;;;;;5076123;28;20957;-67
2023/10/01 08:54:23;;;;;;;0.70;0.70;;;;;;;;;;5076393;28;20446;-67
2023/10/01 08:56:52;;;;;;;0.70;0.70;;;;;;;;;;5075842;28;20435;-66
2023/10/01 08:59:24;;;;;;;0.70;0.70;;;;;;;;;;5076000;28;20443;-66
2023/10/01 09:01:55;;;;;;;0.70;0.70;;;;;;;;;;5075725;28;20924;-67
2023/10/01 09:04:44;;;;;;;0.70;0.70;;;;;;;;;;5075343;28;20586;-67
2023/10/01 09:07:17;;;;;;;0.70;0.70;;;;;;;;;;5075941;28;20512;-67
2023/10/01 09:09:52;;;;;;;0.70;0.70;;;;;;;;;;5076020;28;20439;-67
2023/10/01 09:12:19;;;;;;;0.70;0.70;;;;;;;;;;5075744;28;20431;-66
2023/10/01 09:14:48;;;;;;;0.70;0.70;;;;;;;;;;5075443;28;20450;-66
2023/10/01 09:17:24;;;;;;;0.70;0.70;;;;;;;;;;5075281;28;20523;-67
2023/10/01 09:19:52;;;;;;;0.70;0.70;;;;;;;;;;5075801;28;20446;-67
2023/10/01 09:22:40;;;;;;;0.70;0.70;;;;;;;;;;5075188;28;20939;-66
2023/10/01 09:25:17;;;;;;;0.80;0.80;;;;;;;;;;5075329;28;20463;-67
2023/10/01 09:27:57;;;;;;;0.80;0.80;;;;;;;;;;5075296;28;20441;-66
2023/10/01 09:30:47;;;;;;;0.70;0.70;;;;;;;;;;5075601;28;20427;-67
2023/10/01 09:33:24;;;;;;;0.70;0.70;;;;;;;;;;5075031;28;20449;-65
2023/10/01 09:35:59;;;;;;;0.80;0.80;;;;;;;;;;5074624;28;20446;-65
2023/10/01 09:38:28;;;;;;;0.80;0.80;;;;;;;;;;5075082;28;20428;-66
2023/10/01 09:40:56;;;;;;;1.00;1.00;;;;;;;;;;5075307;28;20843;-67
2023/10/01 09:43:27;;;;;;;0.70;0.70;;;;;;;;;;5074713;28;20444;-66
2023/10/01 09:45:58;;;;;;;0.70;0.70;;;;;;;;;;5075355;28;20464;-66
2023/10/01 09:48:30;;;;;;;0.80;0.80;;;;;;;;;;5075134;28;20747;-66
2023/10/01 09:51:07;;;;;;;0.70;0.70;;;;;;;;;;5074982;28;20443;-66
2023/10/01 09:53:44;;;;;;;0.70;0.70;;;;;;;;;;5075509;28;20428;-66
2023/10/01 09:56:12;;;;;;;0.80;0.80;;;;;;;;;;5074721;28;20455;-66
2023/10/01 09:58:46;;;;;;;1.03;0.97;;;;;;;;;;5074805;28;20490;-66
2023/10/01 10:01:17;;;;;;;0.70;0.70;;;;;;;;;;5074319;28;20997;-66
2023/10/01 10:03:45;;;;;;;0.70;0.70;;;;;;;;;;5074868;28;20524;-66
2023/10/01 10:06:24;;;;;;;0.70;0.70;;;;;;;;;;5074204;28;20568;-66
2023/10/01 10:09:02;;;;;;;0.70;0.70;;;;;;;;;;5074586;28;20439;-66
2023/10/01 10:11:30;;;;;;;0.70;0.70;;;;;;;;;;5074771;28;20420;-66
2023/10/01 10:14:00;;;;;;;0.70;0.70;;;;;;;;;;5074751;28;20750;-66
2023/10/01 10:16:31;;;;;;;0.70;0.70;;;;;;;;;;5074205;28;20443;-66
2023/10/01 10:19:08;;;;;;;0.70;0.70;;;;;;;;;;5074467;28;20773;-66
2023/10/01 10:22:05;;;;;;;0.70;0.70;;;;;;;;;;5074604;28;20475;-67
2023/10/01 10:24:34;;;;;;;0.70;0.70;;;;;;;;;;5074421;28;20997;-66
2023/10/01 10:27:06;;;;;;;0.70;0.70;;;;;;;;;;5073847;28;20535;-67
2023/10/01 10:29:56;;;;;;;0.70;0.70;;;;;;;;;;5074150;28;20526;-66
2023/10/01 10:32:25;;;;;;;0.70;0.70;;;;;;;;;;5073931;28;20507;-66
2023/10/01 10:35:14;;;;;;;0.70;0.70;;;;;;;;;;5074238;28;20455;-66
2023/10/01 10:37:47;;;;;;;0.70;0.70;;;;;;;;;;5073418;28;20443;-66
2023/10/01 10:40:22;;;;;;;0.70;0.70;;;;;;;;;;5073852;28;20955;-66
2023/10/01 10:43:08;;;;;;;0.70;0.70;;;;;;;;;;5074055;28;20420;-66
2023/10/01 10:45:42;;;;;;;0.70;0.70;;;;;;;;;;5073836;28;20562;-67
2023/10/01 10:48:14;;;;;;;0.70;0.70;;;;;;;;;;5073570;28;20428;-66
2023/10/01 10:50:44;;;;;;;0.70;0.70;;;;;;;;;;5074031;28;20787;-67
2023/10/01 10:53:20;;;;;;;0.70;0.70;;;;;;;;;;5073980;28;20440;-66
2023/10/01 10:56:00;;;;;;;0.70;0.70;;;;;;;;;;5073866;28;20511;-66
2023/10/01 10:58:28;;;;;;;0.70;0.70;;;;;;;;;;5073897;28;20535;-66
2023/10/01 11:00:56;;;;;;;0.80;0.80;;;;;;;;;;5073983;28;20444;-66
2023/10/01 11:03:40;;;;;;;0.70;0.70;;;;;;;;;;5073502;28;20479;-66
2023/10/01 11:06:15;;;;;;;0.70;0.70;;;;;;;;;;5073743;28;20460;-66
2023/10/01 11:08:50;;;;;;;0.80;0.80;;;;;;;;;;5073218;28;20934;-66
2023/10/01 11:11:18;;;;;;;1.10;1.00;;;;;;;;;;5073915;28;20991;-66
2023/10/01 11:13:46;;;;;;;0.70;0.70;;;;;;;;;;5073056;28;20795;-66
2023/10/01 11:16:15;;;;;;;0.70;0.70;;;;;;;;;;5073252;28;20441;-65
2023/10/01 11:18:44;;;;;;;0.70;0.70;;;;;;;;;;5073395;28;20443;-65
2023/10/01 11:21:20;;;;;;;0.70;0.70;;;;;;;;;;5073317;28;20494;-66
2023/10/01 11:23:49;;;;;;;0.70;0.70;;;;;;;;;;5073570;28;20803;-66
2023/10/01 11:26:27;;;;;;;0.70;0.70;;;;;;;;;;5073422;28;20480;-66
2023/10/01 11:28:57;;;;;;;0.70;0.70;;;;;;;;;;5073412;28;20437;-66
2023/10/01 11:31:24;;;;;;;0.70;0.70;;;;;;;;;;5053058;28;20445;-65
2023/10/01 11:34:04;;;;;;;0.70;0.70;;;;;;;;;;5052798;28;20545;-65
2023/10/01 11:36:37;;;;;;;0.70;0.70;;;;;;;;;;5056398;28;20439;-66
2023/10/01 11:39:06;;;;;;;0.70;0.70;;;;;;;;;;5072450;28;20956;-66
2023/10/01 11:41:41;;;;;;;0.70;0.70;;;;;;;;;;5073039;28;20436;-66
2023/10/01 11:44:16;;;;;;;0.70;0.70;;;;;;;;;;5072874;28;20898;-67
2023/10/01 11:49:38;;;;;;;0.80;0.80;;;;;;;;;;5151660;27;20870;-66
2023/10/01 11:52:21;;;;;;;0.70;0.70;;;;;;;;;;5130923;28;20927;-65
2023/10/01 11:54:52;;;;;;;0.70;0.70;;;;;;;;;;5131029;28;20603;-65
2023/10/01 11:57:23;;;;;;;0.70;0.70;;;;;;;;;;5130803;28;20422;-66
2023/10/01 11:59:54;;;;;;;0.70;0.70;;;;;;;;;;5130906;28;20410;-65
2023/10/01 12:02:25;;;;;;;0.70;0.70;;;;;;;;;;5130863;28;20522;-65
2023/10/01 12:04:59;;;;;;;0.80;0.80;;;;;;;;;;5130841;28;20428;-65
2023/10/01 12:07:32;;;;;;;0.80;0.80;;;;;;;;;;5130831;28;20513;-65
2023/10/01 12:09:59;;;;;;;0.80;0.80;;;;;;;;;;5130949;28;20428;-65
2023/10/01 12:12:28;;;;;;;0.70;0.70;;;;;;;;;;5130844;28;20485;-65
2023/10/01 12:14:55;;;;;;;1.10;1.07;;;;;;;;;;5130927;28;20432;-65
2023/10/01 12:17:26;;;;;;;0.70;0.70;;;;;;;;;;5130400;28;20477;-65
2023/10/01 12:20:03;;;;;;;0.70;0.70;;;;;;;;;;5130702;28;20525;-66
2023/10/01 12:22:31;;;;;;;0.70;0.70;;;;;;;;;;5130473;28;20424;-65
2023/10/01 12:24:59;;;;;;;0.70;0.70;;;;;;;;;;5130224;28;20525;-67
2023/10/01 12:27:41;;;;;;;0.80;0.80;;;;;;;;;;5130923;28;20832;-66
2023/10/01 12:30:10;;;;;;;0.70;0.70;;;;;;;;;;5130164;28;20424;-66
2023/10/01 12:32:42;;;;;;;0.70;0.70;;;;;;;;;;5130201;28;20794;-66
2023/10/01 12:35:27;;;;;;;0.70;0.70;;;;;;;;;;5130584;28;20464;-66
2023/10/01 12:38:05;;;;;;;0.70;0.70;;;;;;;;;;5129789;28;20456;-66
2023/10/01 12:40:34;;;;;;;0.70;0.70;;;;;;;;;;5130055;28;20469;-66
2023/10/01 12:43:02;;;;;;;0.70;0.70;;;;;;;;;;5129991;28;20442;-67
2023/10/01 12:45:28;;;;;;;0.70;0.70;;;;;;;;;;5130186;28;20525;-66
2023/10/01 12:48:07;;;;;;;0.70;0.70;;;;;;;;;;5129856;28;20507;-66
2023/10/01 12:50:35;;;;;;;0.70;0.70;;;;;;;;;;5129886;28;20425;-66
2023/10/01 12:53:20;;;;;;;0.70;0.70;;;;;;;;;;5129938;28;20977;-66
2023/10/01 12:55:51;;;;;;;0.70;0.70;;;;;;;;;;5129717;28;20515;-66
2023/10/01 12:58:20;;;;;;;0.70;0.70;;;;;;;;;;5129641;28;20434;-66
2023/10/01 13:00:47;;;;;;;0.70;0.70;;;;;;;;;;5116894;28;20912;-66
2023/10/01 13:03:19;;;;;;;0.70;0.70;;;;;;;;;;5116238;28;20451;-66
2023/10/01 13:05:49;;;;;;;0.70;0.70;;;;;;;;;;5115720;28;20425;-65
2023/10/01 13:08:28;;;;;;;3.00;2.80;;;;;;;;;;5115888;28;20496;-64
2023/10/01 13:10:55;;;;;;;0.70;0.70;;;;;;;;;;5115712;28;20424;-66
2023/10/01 13:13:29;;;;;;;0.80;0.80;;;;;;;;;;5115980;28;20436;-66
2023/10/01 13:15:57;;;;;;;0.80;0.80;;;;;;;;;;5115640;28;20942;-65
2023/10/01 13:18:28;;;;;;;0.70;0.70;;;;;;;;;;5115421;28;20548;-65
2023/10/01 13:21:06;;;;;;;0.70;0.70;;;;;;;;;;5115612;28;20422;-66
2023/10/01 13:23:41;;;;;;;0.70;0.70;;;;;;;;;;5116109;28;20478;-66
2023/10/01 13:26:14;;;;;;;0.70;0.70;;;;;;;;;;5115408;28;20416;-66
2023/10/01 13:28:46;;;;;;;0.70;0.70;;;;;;;;;;5115424;28;20474;-66
2023/10/01 13:31:35;;;;;;;0.70;0.70;;;;;;;;;;5115667;28;20444;-66
2023/10/01 13:34:20;;;;;;;0.70;0.70;;;;;;;;;;5115780;28;20506;-66
2023/10/01 13:39:52;;;;;;;0.70;0.70;;;;;;;;;;5114073;28;20425;-66
2023/10/01 14:09:52;;;;;;;0.70;0.70;;;;;;;;;;5114649;28;20964;-66
2023/10/01 14:12:41;;;;;;;0.70;0.70;;;;;;;;;;5113576;28;20480;-66
2023/10/01 14:15:21;;;;;;;0.70;0.70;;;;;;;;;;5114501;28;20440;-66
2023/10/01 14:17:52;;;;;;;0.80;0.80;;;;;;;;;;5114457;28;21134;-66
2023/10/01 14:20:37;;;;;;;0.70;0.70;;;;;;;;;;5114463;28;20478;-66
2023/10/01 14:23:07;;;;;;;0.70;0.70;;;;;;;;;;5115023;28;20426;-66
2023/10/01 14:25:52;;;;;;;0.80;0.80;;;;;;;;;;5114370;28;20441;-66
2023/10/01 14:28:21;;;;;;;0.70;0.70;;;;;;;;;;5114858;28;20794;-66
2023/10/01 14:30:50;;;;;;;0.70;0.70;;;;;;;;;;5114493;28;20531;-66
2023/10/01 14:33:25;;;;;;;0.70;0.70;;;;;;;;;;5114429;28;20493;-66
2023/10/01 14:35:53;;;;;;;0.70;0.70;;;;;;;;;;5114098;28;20429;-66
2023/10/01 14:38:22;;;;;;;0.70;0.70;;;;;;;;;;5113697;28;20444;-66
2023/10/01 14:40:56;;;;;;;0.80;0.80;;;;;;;;;;5114577;28;20440;-66
2023/10/01 14:43:24;;;;;;;0.70;0.70;;;;;;;;;;5114448;28;20434;-66
2023/10/01 14:45:52;;;;;;;0.70;0.70;;;;;;;;;;5113867;28;20436;-67
2023/10/01 14:48:19;;;;;;;0.70;0.70;;;;;;;;;;5113548;28;20524;-66
2023/10/01 14:50:46;;;;;;;0.70;0.70;;;;;;;;;;5113747;28;20438;-67
2023/10/01 14:53:18;;;;;;;0.70;0.70;;;;;;;;;;5114151;28;20771;-66
2023/10/01 14:55:46;;;;;;;0.70;0.70;;;;;;;;;;5114425;28;20508;-66
2023/10/01 14:58:15;;;;;;;0.80;0.80;;;;;;;;;;5113425;28;20930;-66
2023/10/01 15:00:52;;;;;;;0.70;0.70;;;;;;;;;;5113483;28;21000;-66
2023/10/01 15:03:19;;;;;;;0.70;0.70;;;;;;;;;;5114010;28;20431;-67
2023/10/01 15:05:46;;;;;;;0.70;0.70;;;;;;;;;;5113906;28;20440;-66
2023/10/01 15:08:15;;;;;;;1.37;1.27;;;;;;;;;;5113731;28;20447;-66
2023/10/01 15:10:49;;;;;;;0.70;0.70;;;;;;;;;;5113634;28;20866;-66
2023/10/01 15:13:21;;;;;;;0.80;0.80;;;;;;;;;;5113650;28;20434;-66
2023/10/01 15:15:49;;;;;;;0.70;0.70;;;;;;;;;;5113861;28;20785;-66
2023/10/01 15:18:18;;;;;;;0.70;0.70;;;;;;;;;;5113400;28;20441;-66
2023/10/01 15:20:49;;;;;;;0.70;0.70;;;;;;;;;;5113444;28;20433;-66
2023/10/01 15:23:17;;;;;;;0.70;0.70;;;;;;;;;;5113585;28;20475;-66
2023/10/01 15:25:45;;;;;;;0.70;0.70;;;;;;;;;;5113694;28;20473;-66
2023/10/01 15:28:15;;;;;;;0.70;0.70;;;;;;;;;;5113643;28;20430;-66
2023/10/01 15:30:45;;;;;;;0.70;0.60;;;;;;;;;;5113546;28;20428;-66
2023/10/01 15:33:16;;;;;;;0.70;0.70;;;;;;;;;;5114048;28;20424;-65
2023/10/01 15:35:48;;;;;;;0.70;0.70;;;;;;;;;;5113776;28;20500;-66
2023/10/01 15:38:26;;;;;;;0.70;0.70;;;;;;;;;;5112830;28;20512;-65
2023/10/01 15:40:54;;;;;;;0.70;0.70;;;;;;;;;;5113140;28;20972;-66
2023/10/01 15:43:21;;;;;;;1.57;1.47;;;;;;;;;;5113560;28;20513;-66
2023/10/01 15:45:50;;;;;;;0.80;0.80;;;;;;;;;;5113412;28;20541;-66
2023/10/01 15:48:18;;;;;;;0.70;0.70;;;;;;;;;;5113202;28;20958;-67
2023/10/01 15:50:48;;;;;;;4.10;2.20;;;;;;;;;;5113362;28;20882;-66
2023/10/01 15:53:21;;;;;;;0.70;0.70;;;;;;;;;;5113093;28;20444;-65
2023/10/01 15:55:59;;;;;;;0.70;0.70;;;;;;;;;;5113520;28;20832;-66
2023/10/01 15:58:27;;;;;;;0.70;0.70;;;;;;;;;;5112529;28;20425;-65
2023/10/01 16:00:57;;;;;;;0.73;0.73;;;;;;;;;;5113275;28;20840;-65